Time;durP1;ratioP1;P1;durP2;ratioP2;P2;SDS_P1;SDS_P2;PMS_P1;PMS_P2;Temp;Humidity;BMP_temperature;BMP_pressure;BME280_temperature;BME280_humidity;BME280_pressure;Samples;Min_cycle;Max_cycle;Signal;HPM_P1;HPM_P2
2022/04/08 00:02:00;;;;;;;2.35;1.10;;;14.70;55.50;;;;;;5033333;28;20059;-70
2022/04/08 00:04:27;;;;;;;2.60;1.10;;;14.80;61.10;;;;;;5034667;28;20071;-70
2022/04/08 00:06:57;;;;;;;2.50;1.13;;;14.70;60.90;;;;;;5033509;28;20073;-70
2022/04/08 00:09:24;;;;;;;1.58;0.80;;;;;;;;;;5033420;28;20414;-71
2022/04/08 00:11:50;;;;;;;2.72;1.20;;;14.80;61.20;;;;;;5032915;28;20540;-69
2022/04/08 00:14:18;;;;;;;2.05;0.95;;;14.80;58.40;;;;;;5034327;28;20053;-70
2022/04/08 00:16:45;;;;;;;1.73;0.90;;;;;;;;;;5034393;28;20099;-70
2022/04/08 00:19:12;;;;;;;1.30;1.08;;;14.80;60.90;;;;;;5032929;28;20388;-70
2022/04/08 00:21:39;;;;;;;1.42;0.90;;;;;;;;;;5032385;28;20054;-70
2022/04/08 00:24:08;;;;;;;1.70;0.93;;;14.80;61.00;;;;;;5032996;28;20079;-70
2022/04/08 00:26:34;;;;;;;1.42;0.85;;;14.80;60.30;;;;;;5032974;28;20084;-70
2022/04/08 00:29:01;;;;;;;1.58;0.98;;;;;;;;;;5033225;28;20069;-70
2022/04/08 00:31:28;;;;;;;1.30;0.82;;;14.70;61.00;;;;;;5032939;28;20057;-70
2022/04/08 00:33:55;;;;;;;1.15;0.82;;;14.90;60.90;;;;;;5032592;28;20057;-70
2022/04/08 00:36:21;;;;;;;1.45;1.05;;;14.90;60.90;;;;;;5033791;28;20491;-70
2022/04/08 00:38:49;;;;;;;1.60;0.90;;;14.80;60.70;;;;;;5032537;28;20137;-71
2022/04/08 00:41:17;;;;;;;2.15;1.10;;;14.80;56.20;;;;;;5033673;28;20049;-70
2022/04/08 00:43:44;;;;;;;1.77;0.93;;;;;;;;;;5032517;28;20068;-70
2022/04/08 00:46:11;;;;;;;2.50;1.15;;;14.80;60.80;;;;;;5033699;28;20053;-70
2022/04/08 00:48:38;;;;;;;2.67;1.05;;;;;;;;;;5031921;28;20052;-69
2022/04/08 00:51:05;;;;;;;1.77;1.10;;;14.50;57.20;;;;;;5033567;28;20059;-70
2022/04/08 00:53:32;;;;;;;1.17;0.85;;;;;;;;;;5032297;28;20509;-69
2022/04/08 00:55:59;;;;;;;2.38;1.10;;;14.50;60.80;;;;;;5032484;28;20057;-70
2022/04/08 00:58:27;;;;;;;1.35;0.85;;;14.80;60.90;;;;;;5033392;28;20417;-70
2022/04/08 01:00:53;;;;;;;1.83;1.02;;;14.90;60.70;;;;;;5032780;28;20054;-71
2022/04/08 01:03:20;;;;;;;2.13;0.90;;;14.80;60.70;;;;;;5033474;28;20399;-71
2022/04/08 01:05:47;;;;;;;2.22;1.00;;;14.50;60.50;;;;;;5032081;28;20045;-70
2022/04/08 01:08:17;;;;;;;2.45;1.20;;;14.50;60.40;;;;;;5033211;28;20052;-70
2022/04/08 01:10:43;;;;;;;1.92;0.90;;;14.90;60.60;;;;;;5031855;28;20057;-70
2022/04/08 01:13:10;;;;;;;1.92;1.00;;;;;;;;;;5032045;28;20144;-69
2022/04/08 01:15:39;;;;;;;1.25;0.90;;;14.90;60.60;;;;;;5032811;28;20056;-70
2022/04/08 01:18:06;;;;;;;1.95;0.98;;;14.90;60.90;;;;;;5031620;28;20413;-70
2022/04/08 01:20:33;;;;;;;2.63;1.25;;;14.90;59.20;;;;;;5031869;28;20093;-70
2022/04/08 01:23:00;;;;;;;1.38;0.80;;;14.40;60.40;;;;;;5031570;28;20061;-70
2022/04/08 01:25:28;;;;;;;2.22;1.00;;;14.80;60.60;;;;;;5032867;28;20052;-68
2022/04/08 01:27:55;;;;;;;2.60;0.90;;;14.60;60.80;;;;;;5031591;28;20060;-70
2022/04/08 01:30:21;;;;;;;1.83;0.80;;;14.30;60.30;;;;;;5032795;28;20057;-70
2022/04/08 01:32:48;;;;;;;2.30;0.95;;;15.20;60.70;;;;;;5032730;28;20413;-70
2022/04/08 01:35:15;;;;;;;2.88;0.90;;;14.60;60.40;;;;;;5031371;28;20049;-69
2022/04/08 01:37:41;;;;;;;1.52;0.90;;;14.60;60.40;;;;;;5032588;28;20049;-70
2022/04/08 01:40:09;;;;;;;1.27;0.80;;;15.10;60.60;;;;;;5031184;28;20521;-70
2022/04/08 01:42:37;;;;;;;1.48;0.77;;;14.90;60.60;;;;;;5031219;28;20059;-70
2022/04/08 01:45:05;;;;;;;2.20;0.93;;;14.50;53.60;;;;;;5032280;28;20041;-71
2022/04/08 01:47:32;;;;;;;1.42;0.80;;;14.80;57.50;;;;;;5031468;28;20064;-70
2022/04/08 01:49:59;;;;;;;1.63;0.90;;;15.10;60.70;;;;;;5031204;28;20045;-70
2022/04/08 01:52:25;;;;;;;2.55;1.00;;;15.00;57.20;;;;;;5033731;28;20077;-70
2022/04/08 01:54:52;;;;;;;1.85;0.90;;;14.90;60.40;;;;;;5031466;28;20053;-70
2022/04/08 01:57:23;;;;;;;1.63;0.85;;;15.10;60.50;;;;;;5032072;28;20664;-71
2022/04/08 01:59:52;;;;;;;1.23;0.85;;;15.00;60.50;;;;;;5030870;28;20045;-70
2022/04/08 02:02:19;;;;;;;1.48;0.70;;;15.10;60.50;;;;;;5032393;28;20049;-70
2022/04/08 02:04:46;;;;;;;1.85;0.90;;;15.00;59.40;;;;;;5031181;28;20060;-70
2022/04/08 02:07:12;;;;;;;1.40;0.90;;;15.10;60.50;;;;;;5041862;28;20057;-70
2022/04/08 02:09:40;;;;;;;2.28;0.90;;;;;;;;;;5051897;28;20611;-70
2022/04/08 02:12:07;;;;;;;2.08;1.00;;;15.00;60.70;;;;;;5051575;28;20524;-70
2022/04/08 02:14:34;;;;;;;2.05;1.00;;;;;;;;;;5050814;28;20065;-69
2022/04/08 02:17:02;;;;;;;1.95;1.02;;;14.60;60.10;;;;;;5051871;28;20417;-70
2022/04/08 02:19:29;;;;;;;1.27;0.82;;;15.10;60.40;;;;;;5050395;28;20059;-70
2022/04/08 02:21:57;;;;;;;1.27;0.73;;;15.00;60.40;;;;;;5051592;28;20453;-71
2022/04/08 02:24:24;;;;;;;2.20;0.90;;;14.90;60.40;;;;;;5050110;28;20053;-70
2022/04/08 02:26:51;;;;;;;0.73;0.70;;;15.00;60.40;;;;;;5050704;28;20059;-70
2022/04/08 02:29:18;;;;;;;1.73;0.68;;;15.00;60.40;;;;;;5051702;28;20409;-68
2022/04/08 02:31:44;;;;;;;2.13;0.90;;;15.80;60.80;;;;;;5049685;28;20055;-68
2022/04/08 02:34:12;;;;;;;1.83;0.85;;;14.50;60.10;;;;;;5051696;28;20051;-68
2022/04/08 02:36:39;;;;;;;1.77;0.90;;;14.40;60.00;;;;;;5050583;28;20056;-68
2022/04/08 02:39:06;;;;;;;0.98;0.70;;;14.90;60.60;;;;;;5050620;28;20424;-68
2022/04/08 02:41:32;;;;;;;2.28;0.80;;;15.00;60.50;;;;;;5050828;28;20128;-69
2022/04/08 02:43:59;;;;;;;2.08;0.88;;;14.80;60.50;;;;;;5051830;28;20052;-68
2022/04/08 02:46:26;;;;;;;2.30;1.00;;;15.00;60.30;;;;;;5050293;28;20053;-68
2022/04/08 02:48:53;;;;;;;1.70;0.80;;;14.90;60.50;;;;;;5051714;28;20132;-68
2022/04/08 02:51:21;;;;;;;2.97;0.90;;;15.00;60.50;;;;;;5050114;28;20413;-68
2022/04/08 02:53:48;;;;;;;1.58;0.90;;;;;;;;;;5051270;28;20053;-68
2022/04/08 02:56:15;;;;;;;1.35;0.80;;;;;;;;;;5046282;28;20060;-68
2022/04/08 02:58:41;;;;;;;1.73;0.60;;;15.00;55.90;;;;;;5048825;28;20083;-68
2022/04/08 03:01:10;;;;;;;1.38;0.90;;;15.00;57.20;;;;;;5051097;28;20055;-68
2022/04/08 03:03:36;;;;;;;1.38;0.70;;;14.90;60.30;;;;;;5051533;28;20053;-68
2022/04/08 03:06:03;;;;;;;1.40;0.80;;;;;;;;;;5051389;28;20057;-68
2022/04/08 03:08:31;;;;;;;1.25;0.70;;;15.00;60.40;;;;;;5049635;28;20053;-67
2022/04/08 03:10:58;;;;;;;1.98;0.90;;;15.00;60.40;;;;;;5050932;28;20532;-68
2022/04/08 03:13:25;;;;;;;1.10;0.70;;;14.80;60.20;;;;;;5049335;28;20063;-68
2022/04/08 03:15:52;;;;;;;1.27;0.80;;;;;;;;;;5049012;28;20075;-68
2022/04/08 03:18:19;;;;;;;1.25;0.85;;;14.90;58.40;;;;;;5050037;28;20059;-68
2022/04/08 03:20:46;;;;;;;1.17;0.93;;;;;;;;;;5049869;28;20065;-69
2022/04/08 03:23:12;;;;;;;1.90;1.02;;;15.00;60.70;;;;;;5051117;28;20049;-68
2022/04/08 03:25:40;;;;;;;1.40;0.75;;;15.00;60.40;;;;;;5051631;28;20072;-68
2022/04/08 03:28:09;;;;;;;2.13;0.80;;;14.40;60.10;;;;;;5051204;28;20056;-68
2022/04/08 03:30:35;;;;;;;1.92;0.95;;;15.00;60.30;;;;;;5048324;28;20560;-69
2022/04/08 03:33:02;;;;;;;0.88;0.65;;;15.00;60.00;;;;;;5050949;28;20045;-68
2022/04/08 03:35:29;;;;;;;1.10;0.73;;;14.90;60.60;;;;;;5051388;28;20059;-68
2022/04/08 03:37:56;;;;;;;3.35;0.70;;;;;;;;;;5051090;28;20052;-69
2022/04/08 03:40:23;;;;;;;2.30;0.80;;;15.10;60.50;;;;;;5049503;28;20405;-68
2022/04/08 03:42:51;;;;;;;1.20;0.63;;;14.90;60.50;;;;;;5049985;28;20478;-68
2022/04/08 03:45:18;;;;;;;1.95;0.90;;;;;;;;;;5053146;28;20063;-68
2022/04/08 03:47:44;;;;;;;1.70;0.80;;;14.60;58.30;;;;;;5035705;28;20049;-68
2022/04/08 03:50:11;;;;;;;1.60;0.85;;;14.70;60.10;;;;;;5034447;28;20494;-68
2022/04/08 03:52:38;;;;;;;1.45;0.80;;;;;;;;;;5034544;28;20069;-68
2022/04/08 03:55:06;;;;;;;1.15;0.80;;;14.90;53.30;;;;;;5033186;28;20061;-68
2022/04/08 03:57:33;;;;;;;0.95;0.70;;;15.00;60.20;;;;;;5033438;28;20151;-68
2022/04/08 04:00:01;;;;;;;1.73;0.80;;;15.70;60.60;;;;;;5033165;28;20056;-68
2022/04/08 04:02:28;;;;;;;1.33;0.70;;;14.90;60.40;;;;;;5035485;28;20045;-68
2022/04/08 04:04:59;;;;;;;2.60;1.20;;;14.90;60.10;;;;;;5033309;28;20526;-69
2022/04/08 04:07:26;;;;;;;2.28;0.95;;;14.40;59.90;;;;;;5033184;28;20411;-68
2022/04/08 04:09:52;;;;;;;1.20;0.68;;;14.60;60.20;;;;;;5033271;28;20555;-67
2022/04/08 04:12:19;;;;;;;1.73;0.73;;;15.00;59.00;;;;;;5034406;28;20050;-68
2022/04/08 04:14:46;;;;;;;1.52;0.90;;;14.80;60.40;;;;;;5033429;28;20061;-68
2022/04/08 04:17:14;;;;;;;1.15;0.90;;;14.90;60.20;;;;;;5034075;28;20049;-68
2022/04/08 04:19:40;;;;;;;2.35;0.98;;;15.00;60.20;;;;;;5033844;28;20625;-68
2022/04/08 04:22:08;;;;;;;1.52;0.73;;;;;;;;;;5032782;28;20050;-69
2022/04/08 04:24:35;;;;;;;2.03;0.88;;;;;;;;;;5032897;28;20053;-68
2022/04/08 04:27:02;;;;;;;2.10;1.02;;;;;;;;;;5033113;28;20049;-68
2022/04/08 04:29:28;;;;;;;1.10;0.75;;;15.00;60.00;;;;;;5033714;28;20054;-68
2022/04/08 04:31:56;;;;;;;1.90;0.88;;;;;;;;;;5032409;28;20061;-69
2022/04/08 04:34:25;;;;;;;1.33;0.80;;;14.90;53.20;;;;;;5032865;28;20053;-68
2022/04/08 04:36:51;;;;;;;1.65;0.80;;;15.00;57.80;;;;;;5034985;28;20041;-68
2022/04/08 04:39:18;;;;;;;0.93;0.60;;;14.50;59.90;;;;;;5033730;28;20050;-67
2022/04/08 04:41:45;;;;;;;1.67;0.70;;;14.50;60.20;;;;;;5031990;28;20143;-68
2022/04/08 04:44:12;;;;;;;0.75;0.70;;;14.90;60.10;;;;;;5036272;28;20414;-68
2022/04/08 04:46:39;;;;;;;1.63;0.90;;;14.70;60.20;;;;;;5052131;28;20057;-68
2022/04/08 04:49:06;;;;;;;1.30;0.80;;;;;;;;;;5052424;28;20579;-69
2022/04/08 04:51:34;;;;;;;1.42;0.80;;;14.50;59.80;;;;;;5037803;28;20057;-68
2022/04/08 04:54:01;;;;;;;1.33;0.75;;;14.90;60.30;;;;;;5033545;28;20075;-68
2022/04/08 04:56:27;;;;;;;2.53;1.02;;;15.00;60.10;;;;;;5033129;28;20057;-68
2022/04/08 04:58:54;;;;;;;1.40;0.90;;;15.00;53.80;;;;;;5032185;28;20167;-68
2022/04/08 05:01:21;;;;;;;0.95;0.75;;;14.60;55.30;;;;;;5031801;28;20056;-68
2022/04/08 05:03:47;;;;;;;0.70;0.68;;;14.80;59.90;;;;;;5033177;28;20053;-69
2022/04/08 05:06:14;;;;;;;2.00;0.93;;;;;;;;;;5052992;28;20061;-69
2022/04/08 05:08:42;;;;;;;1.08;0.70;;;15.00;60.30;;;;;;5053207;28;20078;-68
2022/04/08 05:11:09;;;;;;;1.40;0.90;;;14.60;59.80;;;;;;5051810;28;20057;-68
2022/04/08 05:13:36;;;;;;;0.88;0.65;;;14.90;60.30;;;;;;5052992;28;20049;-68
2022/04/08 05:16:02;;;;;;;1.15;0.77;;;14.60;56.30;;;;;;5053191;28;20156;-68
2022/04/08 05:18:29;;;;;;;1.35;0.70;;;14.90;59.90;;;;;;5051713;28;20059;-68
2022/04/08 05:20:56;;;;;;;1.15;0.70;;;14.90;60.30;;;;;;5045440;28;20054;-68
2022/04/08 05:23:28;;;;;;;1.33;0.82;;;15.00;56.90;;;;;;5032959;28;20049;-69
2022/04/08 05:25:56;;;;;;;0.60;0.60;;;14.80;58.40;;;;;;5032978;28;20049;-69
2022/04/08 05:28:23;;;;;;;1.58;0.90;;;15.10;60.10;;;;;;5032832;28;20414;-69
2022/04/08 05:30:50;;;;;;;1.10;0.63;;;15.00;56.60;;;;;;5031562;28;20088;-68
2022/04/08 05:33:16;;;;;;;1.55;0.75;;;14.90;57.10;;;;;;5031561;28;20067;-68
2022/04/08 05:35:43;;;;;;;1.90;1.00;;;15.00;56.70;;;;;;5032832;28;20053;-69
2022/04/08 05:38:10;;;;;;;0.93;0.65;;;14.90;60.10;;;;;;5044806;28;20486;-68
2022/04/08 05:40:37;;;;;;;1.65;0.75;;;;;;;;;;5052195;28;20082;-68
2022/04/08 05:43:05;;;;;;;1.77;0.70;;;14.90;52.90;;;;;;5052508;28;20074;-68
2022/04/08 05:45:32;;;;;;;1.20;0.70;;;14.90;60.10;;;;;;5052751;28;20052;-68
2022/04/08 05:48:03;;;;;;;0.77;0.60;;;14.80;59.70;;;;;;5051267;28;20055;-68
2022/04/08 05:50:30;;;;;;;1.45;0.75;;;;;;;;;;5050845;28;20063;-68
2022/04/08 05:52:57;;;;;;;1.73;1.13;;;15.00;60.20;;;;;;5051009;28;20249;-68
2022/04/08 05:55:24;;;;;;;0.70;0.70;;;15.10;56.40;;;;;;5049315;28;20387;-69
2022/04/08 05:57:53;;;;;;;1.33;0.90;;;14.90;60.10;;;;;;5051027;28;20055;-68
2022/04/08 06:00:21;;;;;;;0.77;0.73;;;14.90;52.80;;;;;;5051649;28;20048;-68
2022/04/08 06:02:48;;;;;;;1.02;0.70;;;14.90;59.80;;;;;;5051056;28;20497;-68
2022/04/08 06:05:18;;;;;;;1.20;0.70;;;15.10;59.90;;;;;;5052057;28;20131;-68
2022/04/08 06:07:45;;;;;;;1.63;0.70;;;15.00;59.70;;;;;;5051457;28;20052;-68
2022/04/08 06:10:12;;;;;;;1.10;0.73;;;;;;;;;;5050130;28;20060;-68
2022/04/08 06:12:39;;;;;;;1.75;0.77;;;15.00;60.10;;;;;;5050835;28;20118;-68
2022/04/08 06:15:07;;;;;;;1.42;0.70;;;14.90;52.70;;;;;;5050692;28;20052;-68
2022/04/08 06:17:38;;;;;;;1.55;0.70;;;15.20;59.80;;;;;;5051863;28;20052;-69
2022/04/08 06:20:06;;;;;;;1.85;0.90;;;14.80;59.70;;;;;;5051525;28;20041;-69
2022/04/08 06:22:32;;;;;;;1.25;0.80;;;15.00;59.80;;;;;;5051457;28;20041;-69
2022/04/08 06:24:59;;;;;;;1.67;0.70;;;14.70;59.40;;;;;;5051745;28;20053;-70
2022/04/08 06:27:26;;;;;;;1.50;0.82;;;15.10;59.70;;;;;;5044853;28;20559;-69
2022/04/08 06:29:52;;;;;;;0.73;0.73;;;15.10;57.90;;;;;;5041820;28;20048;-70
2022/04/08 06:32:20;;;;;;;1.10;0.70;;;14.50;59.20;;;;;;5051705;28;20048;-70
2022/04/08 06:34:48;;;;;;;1.27;0.70;;;15.10;53.50;;;;;;5050476;28;20049;-70
2022/04/08 06:37:15;;;;;;;2.22;1.02;;;15.10;55.10;;;;;;5050598;28;20052;-70
2022/04/08 06:39:41;;;;;;;1.45;0.82;;;15.20;59.70;;;;;;5044162;28;20042;-70
2022/04/08 06:42:08;;;;;;;0.63;0.60;;;15.20;59.50;;;;;;5031694;28;20163;-70
2022/04/08 06:44:35;;;;;;;3.33;0.90;;;15.10;54.00;;;;;;5030637;28;20483;-70
2022/04/08 06:47:02;;;;;;;1.17;0.68;;;;;;;;;;5031606;28;20071;-70
2022/04/08 06:49:29;;;;;;;0.70;0.68;;;;;;;;;;5031304;28;20060;-69
2022/04/08 06:51:58;;;;;;;1.38;0.73;;;14.50;59.10;;;;;;5031728;28;20434;-70
2022/04/08 06:54:25;;;;;;;0.65;0.60;;;14.60;59.30;;;;;;5043321;28;20091;-69
2022/04/08 06:56:51;;;;;;;2.15;0.85;;;15.10;59.60;;;;;;5050275;28;20059;-70
2022/04/08 06:59:18;;;;;;;0.55;0.55;;;15.10;59.60;;;;;;5051229;28;20099;-70
2022/04/08 07:01:45;;;;;;;0.73;0.68;;;;;;;;;;5049768;28;20053;-69
2022/04/08 07:04:12;;;;;;;0.63;0.60;;;15.40;59.60;;;;;;5050335;28;20049;-70
2022/04/08 07:06:39;;;;;;;1.35;0.80;;;15.40;59.60;;;;;;5050575;28;20053;-70
2022/04/08 07:09:07;;;;;;;1.15;0.70;;;15.00;59.00;;;;;;5050284;28;20500;-68
2022/04/08 07:11:34;;;;;;;1.45;0.70;;;;;;;;;;5031207;28;20057;-70
2022/04/08 07:14:01;;;;;;;0.70;0.68;;;15.50;59.40;;;;;;5030378;28;20096;-70
2022/04/08 07:16:28;;;;;;;1.13;0.75;;;15.60;59.10;;;;;;5030309;28;20087;-68
2022/04/08 07:18:54;;;;;;;1.63;0.70;;;16.00;59.00;;;;;;5030786;28;20057;-68
2022/04/08 07:21:22;;;;;;;0.75;0.60;;;16.10;59.30;;;;;;5034911;28;20059;-68
2022/04/08 07:23:48;;;;;;;1.27;0.75;;;15.70;58.90;;;;;;5034267;28;20061;-68
2022/04/08 07:26:18;;;;;;;1.05;0.70;;;15.70;58.80;;;;;;5036117;28;20410;-68
2022/04/08 07:28:46;;;;;;;2.00;0.90;;;16.00;59.00;;;;;;5042196;28;20549;-68
2022/04/08 07:31:13;;;;;;;0.88;0.65;;;15.80;57.30;;;;;;5047444;28;20045;-66
2022/04/08 07:33:39;;;;;;;1.73;0.80;;;15.40;58.40;;;;;;5054930;28;20051;-65
2022/04/08 07:36:06;;;;;;;1.00;0.70;;;15.80;52.20;;;;;;5053936;28;20500;-66
2022/04/08 07:38:33;;;;;;;1.92;0.70;;;14.90;57.50;;;;;;5053996;28;20053;-65
2022/04/08 07:41:00;;;;;;;2.80;1.45;;;;;;;;;;5045663;28;20106;-67
2022/04/08 07:43:28;;;;;;;2.60;0.90;;;15.70;58.00;;;;;;5043108;28;20046;-67
2022/04/08 07:45:55;;;;;;;3.65;0.93;;;15.80;58.00;;;;;;5033717;28;20068;-68
2022/04/08 07:48:21;;;;;;;4.47;0.88;;;16.50;58.50;;;;;;5034694;28;20041;-68
2022/04/08 07:50:48;;;;;;;3.60;1.20;;;15.90;58.20;;;;;;5034590;28;20053;-69
2022/04/08 07:53:15;;;;;;;3.88;1.08;;;15.80;58.00;;;;;;5033772;28;20057;-68
2022/04/08 07:55:42;;;;;;;2.42;1.27;;;16.60;58.50;;;;;;5033833;28;20106;-70
2022/04/08 07:58:09;;;;;;;2.45;0.93;;;16.10;58.30;;;;;;5033459;28;20057;-68
2022/04/08 08:00:37;;;;;;;1.58;0.90;;;16.00;58.10;;;;;;5035284;28;20053;-68
2022/04/08 08:03:04;;;;;;;1.35;0.80;;;16.10;58.20;;;;;;5034482;28;20059;-68
2022/04/08 08:05:32;;;;;;;1.55;0.80;;;;;;;;;;5034481;28;20057;-68
2022/04/08 08:08:00;;;;;;;2.38;1.15;;;16.30;53.60;;;;;;5034499;28;20053;-69
2022/04/08 08:10:27;;;;;;;2.90;1.00;;;16.00;58.00;;;;;;5041096;28;20136;-70
2022/04/08 08:12:54;;;;;;;2.65;1.20;;;16.10;58.20;;;;;;5053724;28;20512;-68
2022/04/08 08:15:21;;;;;;;2.35;0.90;;;16.20;53.40;;;;;;5042643;28;20407;-69
2022/04/08 08:17:49;;;;;;;1.67;0.98;;;16.20;58.30;;;;;;5033965;28;20139;-71
2022/04/08 08:20:17;;;;;;;1.73;0.85;;;15.70;57.60;;;;;;5034230;28;20060;-71
2022/04/08 08:22:44;;;;;;;2.92;0.95;;;16.30;58.00;;;;;;5033946;28;20506;-70
2022/04/08 08:25:11;;;;;;;1.25;0.70;;;15.60;57.80;;;;;;5048767;28;20055;-70
2022/04/08 08:27:39;;;;;;;0.98;0.82;;;16.30;54.50;;;;;;5032727;28;20107;-71
2022/04/08 08:30:06;;;;;;;1.75;0.80;;;16.90;51.40;;;;;;5033270;28;20057;-70
2022/04/08 08:32:33;;;;;;;1.27;0.82;;;17.10;58.40;;;;;;5032730;28;20510;-71
2022/04/08 08:35:01;;;;;;;1.98;1.05;;;16.30;57.90;;;;;;5032854;28;20053;-71
2022/04/08 08:37:28;;;;;;;2.20;0.90;;;15.80;57.60;;;;;;5042793;28;20050;-70
2022/04/08 08:39:56;;;;;;;2.08;0.90;;;16.50;56.30;;;;;;5043582;28;20048;-70
2022/04/08 08:42:24;;;;;;;1.05;0.90;;;16.50;57.90;;;;;;5037054;28;20399;-71
2022/04/08 08:44:51;;;;;;;1.30;0.70;;;16.70;57.80;;;;;;5035722;28;20128;-70
2022/04/08 08:47:18;;;;;;;1.63;0.70;;;16.50;50.90;;;;;;5034417;28;20057;-70
2022/04/08 08:49:46;;;;;;;1.73;1.13;;;16.40;57.60;;;;;;5032085;28;20055;-71
2022/04/08 08:52:14;;;;;;;1.30;1.00;;;16.50;58.00;;;;;;5033578;28;20056;-72
2022/04/08 08:54:41;;;;;;;2.50;1.00;;;15.80;57.50;;;;;;5033558;28;20045;-70
2022/04/08 08:57:09;;;;;;;4.07;1.20;;;16.80;58.10;;;;;;5034992;28;20047;-70
2022/04/08 08:59:37;;;;;;;3.95;1.20;;;;;;;;;;5051538;28;20139;-70
2022/04/08 09:02:04;;;;;;;5.20;1.63;;;16.50;57.60;;;;;;5052006;28;20612;-69
2022/04/08 09:04:31;;;;;;;8.20;1.40;;;16.80;57.90;;;;;;5052220;28;20057;-70
2022/04/08 09:06:58;;;;;;;4.97;1.30;;;16.50;57.70;;;;;;5053156;28;20053;-70
2022/04/08 09:09:32;;;;;;;6.72;1.80;;;17.00;51.40;;;;;;5053127;28;20055;-66
2022/04/08 09:12:09;;;;;;;6.30;2.00;;;16.60;57.70;;;;;;5052213;28;20059;-70
2022/04/08 09:14:35;;;;;;;5.78;2.05;;;16.60;57.80;;;;;;5053078;28;20049;-70
2022/04/08 09:17:03;;;;;;;8.27;1.80;;;16.50;57.90;;;;;;5037376;28;20061;-70
2022/04/08 09:19:32;;;;;;;6.13;1.70;;;16.40;57.70;;;;;;5031531;28;20425;-70
2022/04/08 09:21:59;;;;;;;4.82;1.60;;;;;;;;;;5031615;28;20041;-69
2022/04/08 09:24:26;;;;;;;4.47;1.50;;;16.50;57.90;;;;;;5031808;28;20140;-70
2022/04/08 09:26:55;;;;;;;6.93;1.80;;;15.50;55.60;;;;;;5032876;28;20077;-70
2022/04/08 09:29:21;;;;;;;7.22;1.80;;;16.30;57.60;;;;;;5032428;28;20084;-70
2022/04/08 09:31:49;;;;;;;4.43;1.70;;;16.60;57.60;;;;;;5033989;28;20045;-70
2022/04/08 09:34:16;;;;;;;5.35;1.95;;;16.70;57.80;;;;;;5031660;28;20398;-70
2022/04/08 09:36:45;;;;;;;5.20;1.70;;;16.50;50.80;;;;;;5032657;28;20053;-69
2022/04/08 09:39:13;;;;;;;6.30;1.60;;;16.60;57.70;;;;;;5051259;28;20045;-70
2022/04/08 09:41:40;;;;;;;3.88;1.40;;;16.60;54.50;;;;;;5050324;28;20071;-69
2022/04/08 09:44:09;;;;;;;5.75;1.70;;;17.20;58.20;;;;;;5051814;28;20482;-70
2022/04/08 09:46:36;;;;;;;6.18;1.75;;;16.60;55.20;;;;;;5052536;28;20131;-69
2022/04/08 09:49:04;;;;;;;6.90;1.98;;;16.90;57.80;;;;;;5048994;28;20053;-70
2022/04/08 09:51:30;;;;;;;5.50;2.00;;;16.40;57.90;;;;;;5042087;28;20057;-70
2022/04/08 09:53:58;;;;;;;5.30;1.83;;;;;;;;;;5041379;28;20067;-70
2022/04/08 09:56:26;;;;;;;4.88;1.67;;;17.10;58.10;;;;;;5041520;28;20402;-70
2022/04/08 09:58:57;;;;;;;5.38;1.58;;;16.70;57.60;;;;;;5042872;28;20115;-70
2022/04/08 10:01:25;;;;;;;6.07;1.88;;;16.50;57.60;;;;;;5042255;28;20049;-70
2022/04/08 10:03:52;;;;;;;8.38;2.08;;;16.50;57.80;;;;;;5039543;28;20103;-70
2022/04/08 10:06:19;;;;;;;4.03;1.70;;;16.80;57.80;;;;;;5040083;28;20075;-70
2022/04/08 10:08:46;;;;;;;4.93;1.40;;;16.50;57.90;;;;;;5031053;28;20049;-69
2022/04/08 10:11:16;;;;;;;4.45;1.48;;;15.50;56.50;;;;;;5036222;28;20051;-70
2022/04/08 10:13:49;;;;;;;6.15;1.60;;;17.40;58.30;;;;;;5046586;28;20140;-70
2022/04/08 10:16:17;;;;;;;6.78;2.25;;;16.60;57.60;;;;;;5052495;28;20053;-70
2022/04/08 10:18:46;;;;;;;10.23;3.42;;;16.80;57.90;;;;;;5050870;28;20063;-71
2022/04/08 10:21:13;;;;;;;16.75;4.40;;;16.70;53.00;;;;;;5048836;28;20056;-70
2022/04/08 10:23:41;;;;;;;59.63;18.60;;;17.10;57.70;;;;;;5050713;28;20102;-69
2022/04/08 10:26:17;;;;;;;61.33;17.42;;;17.50;58.20;;;;;;5050685;28;20057;-70
2022/04/08 10:28:43;;;;;;;114.68;33.35;;;16.70;57.80;;;;;;5034048;28;20045;-70
2022/04/08 10:31:17;;;;;;;96.47;27.70;;;16.70;50.90;;;;;;5051812;28;20048;-69
2022/04/08 10:33:50;;;;;;;111.75;30.00;;;16.80;57.70;;;;;;5052010;28;20044;-71
2022/04/08 10:36:17;;;;;;;138.30;35.25;;;16.40;53.30;;;;;;5051431;28;20051;-70
2022/04/08 10:38:43;;;;;;;117.47;33.22;;;16.40;57.30;;;;;;5042446;28;20409;-70
2022/04/08 10:41:11;;;;;;;110.85;30.33;;;16.70;57.80;;;;;;5030397;28;20045;-71
2022/04/08 10:43:48;;;;;;;100.45;28.08;;;16.90;57.70;;;;;;5030320;28;20449;-70
2022/04/08 10:46:15;;;;;;;88.93;24.77;;;17.40;58.30;;;;;;5032017;28;20132;-70
2022/04/08 10:48:41;;;;;;;83.82;22.83;;;16.60;56.90;;;;;;5037060;28;20045;-70
2022/04/08 10:51:12;;;;;;;80.57;23.17;;;16.80;57.90;;;;;;5042186;28;20048;-70
2022/04/08 10:53:41;;;;;;;80.25;22.48;;;17.30;58.20;;;;;;5041106;28;20045;-70
2022/04/08 10:56:10;;;;;;;74.57;22.75;;;17.00;55.50;;;;;;5044219;28;20041;-70
2022/04/08 10:58:40;;;;;;;73.28;22.00;;;16.00;57.50;;;;;;5045788;28;20049;-70
2022/04/08 11:01:14;;;;;;;73.68;22.45;;;16.30;57.70;;;;;;5042674;28;20744;-71
2022/04/08 11:03:45;;;;;;;66.82;19.63;;;16.70;57.60;;;;;;5040685;28;20049;-70
2022/04/08 11:06:14;;;;;;;61.08;18.25;;;16.80;57.80;;;;;;5034811;28;20061;-70
2022/04/08 11:08:42;;;;;;;55.45;16.98;;;16.50;57.50;;;;;;5035375;28;20052;-71
2022/04/08 11:11:09;;;;;;;54.35;16.42;;;16.60;58.00;;;;;;5043050;28;20054;-70
2022/04/08 11:13:36;;;;;;;57.33;17.70;;;17.40;54.40;;;;;;5053962;28;20051;-68
2022/04/08 11:16:04;;;;;;;41.45;13.25;;;16.70;57.60;;;;;;5054739;28;20394;-68
2022/04/08 11:18:31;;;;;;;51.22;15.50;;;16.40;57.70;;;;;;5044203;28;20045;-68
2022/04/08 11:20:58;;;;;;;47.38;14.27;;;;;;;;;;5038982;28;20063;-67
2022/04/08 11:23:32;;;;;;;40.90;14.10;;;15.60;56.90;;;;;;5040107;28;20048;-68
2022/04/08 11:25:59;;;;;;;38.05;12.88;;;15.80;57.10;;;;;;5033912;28;20128;-68
2022/04/08 11:28:26;;;;;;;35.40;12.38;;;16.80;57.70;;;;;;5036293;28;20050;-68
2022/04/08 11:30:56;;;;;;;33.08;11.95;;;16.70;57.70;;;;;;5035160;28;20124;-68
2022/04/08 11:33:23;;;;;;;33.05;11.10;;;17.40;58.10;;;;;;5035211;28;20099;-68
2022/04/08 11:35:56;;;;;;;29.42;10.63;;;16.90;57.70;;;;;;5035476;28;20057;-69
2022/04/08 11:38:23;;;;;;;29.88;10.02;;;17.40;58.00;;;;;;5042750;28;20410;-68
2022/04/08 11:40:52;;;;;;;30.90;10.30;;;16.70;57.80;;;;;;5034601;28;20577;-68
2022/04/08 11:43:19;;;;;;;28.45;9.57;;;16.60;57.60;;;;;;5034917;28;20079;-68
2022/04/08 11:45:46;;;;;;;33.67;10.02;;;16.60;57.60;;;;;;5040313;28;20049;-69
2022/04/08 11:48:15;;;;;;;26.85;9.60;;;16.40;51.70;;;;;;5042666;28;20045;-69
2022/04/08 11:50:42;;;;;;;25.55;9.70;;;16.50;57.20;;;;;;5042654;28;20139;-70
2022/04/08 11:53:14;;;;;;;26.08;9.80;;;15.60;56.80;;;;;;5045323;28;20137;-70
2022/04/08 11:55:40;;;;;;;22.60;8.20;;;16.50;57.40;;;;;;5045424;28;20131;-68
2022/04/08 11:58:18;;;;;;;24.08;8.35;;;16.70;57.20;;;;;;5045817;28;20049;-69
2022/04/08 12:00:46;;;;;;;25.20;8.10;;;16.70;57.40;;;;;;5044585;28;20050;-70
2022/04/08 12:03:18;;;;;;;23.30;7.72;;;16.60;57.60;;;;;;5044251;28;20052;-70
2022/04/08 12:05:45;;;;;;;24.60;8.25;;;15.50;56.90;;;;;;5042649;28;20053;-69
2022/04/08 12:08:13;;;;;;;21.88;7.53;;;15.50;56.70;;;;;;5040900;28;20509;-70
2022/04/08 12:10:39;;;;;;;20.08;7.25;;;16.40;54.90;;;;;;5039840;28;20049;-70
2022/04/08 12:13:13;;;;;;;23.58;7.50;;;16.40;57.60;;;;;;5039847;28;20043;-70
2022/04/08 12:15:44;;;;;;;22.23;7.47;;;15.50;53.10;;;;;;5043472;28;20079;-70
2022/04/08 12:18:11;;;;;;;20.35;6.45;;;16.50;57.30;;;;;;5038266;28;20057;-70
2022/04/08 12:20:41;;;;;;;19.10;6.82;;;16.40;57.80;;;;;;5033110;28;20406;-70
2022/04/08 12:23:09;;;;;;;19.02;6.38;;;15.40;57.20;;;;;;5032970;28;20049;-70
2022/04/08 12:25:36;;;;;;;17.35;6.22;;;15.40;57.20;;;;;;5042074;28;20055;-70
2022/04/08 12:28:03;;;;;;;16.52;5.70;;;15.60;57.60;;;;;;5051381;28;20397;-70
2022/04/08 12:30:31;;;;;;;17.48;6.40;;;16.20;57.90;;;;;;5051648;28;20051;-70
2022/04/08 12:32:59;;;;;;;17.67;6.53;;;16.30;57.80;;;;;;5041036;28;20128;-70
2022/04/08 12:35:27;;;;;;;16.77;6.22;;;;;;;;;;5044738;28;20118;-68
2022/04/08 12:37:55;;;;;;;14.73;5.88;;;16.30;57.70;;;;;;5042862;28;20048;-70
2022/04/08 12:40:22;;;;;;;13.00;5.78;;;16.30;51.00;;;;;;5045385;28;20440;-70
2022/04/08 12:42:49;;;;;;;15.18;6.22;;;16.20;57.30;;;;;;5043634;28;20409;-69
2022/04/08 12:45:16;;;;;;;14.05;5.20;;;16.40;57.60;;;;;;5042925;28;20045;-70
2022/04/08 12:47:42;;;;;;;12.65;5.03;;;16.50;56.30;;;;;;5043298;28;20045;-69
2022/04/08 12:50:11;;;;;;;12.70;4.82;;;17.00;58.20;;;;;;5049105;28;20139;-70
2022/04/08 12:52:41;;;;;;;15.30;5.47;;;;;;;;;;5041898;28;20059;-68
2022/04/08 12:55:08;;;;;;;10.48;4.40;;;16.60;57.80;;;;;;5042721;28;20103;-70
2022/04/08 12:57:35;;;;;;;12.85;4.75;;;15.60;57.20;;;;;;5042564;28;20059;-70